Glenwood Springs, CO

10:16 AM MDT on October 24, 2014 (GMT -0600)
Sunlight Mountain | Change Station
CLOSE
Current Station
Airport
Location: Sunlight Mountain,
Elevation: 10604 ft
Nearby Weather Stations

Elev 10604 ft 39.43 °N, 107.38 °W | Updated 19 minutes ago

Clear
Clear
45 °F
Feels Like 45 °F
N
0
Wind Variable Wind from North

Today
High -- | Low -- °F
--% Chance of Precip.
Yesterday
High -- | Low -- °F
Precip. -- in
7:28 AM 6:17 PM
New Moon, 1% visible
Pressure 30.59 in
Visibility 10.0 miles
Clouds Clear
Dew Point 25 °F
Humidity 46%
Rainfall 0.00 in
Snow Depth Not available.
UV 2 out of 12
Pollen 1.80 out of 12
Air Quality Not available.
Flu Activity Sporadic
METAR K5SM 241557Z AUTO 00000KT 10SM CLR 07/M04 A3059 RMK AO2

More Conditions Fewer Conditions

Pressure 30.59 in
Visibility 10.0 miles
Clouds Clear
Dew Point 25 °F
Humidity 46%
Rainfall 0.00 in
Snow Depth Not available.
UV 2 out of 12
Pollen 1.80 out of 12
Air Quality Not available.
Flu Activity Sporadic
METAR K5SM 241557Z AUTO 00000KT 10SM CLR 07/M04 A3059 RMK AO2

More Conditions Fewer Conditions

10-Day Weather Forecast

Almanac

Astronomy

Oct. 24, 2014 Rise Set
Actual Time 7:28 AM MDT 6:17 PM MDT
Civil Twilight 7:01 AM MDT 6:45 PM MDT
Nautical Twilight 6:30 AM MDT 7:16 PM MDT
Astronomical Twilight 5:58 AM MDT 7:47 PM MDT
Moon 8:10 AM MDT 7:00 PM MDT
Length of Visible Light 11h 43m
Length of Day
10h 48m
Tomorrow will be 2m 23s shorter.
New Moon, 1% of the Moon is Illuminated
Today
New Moon
Oct 30
First Quarter
Nov 6
Full
Nov 14
Last Quarter
Nov 22
New

Today's Extremes

State Highs State Lows

Community

WunderPhotos

Upload Photos

1,764,600 photos uploaded!

WunderBlogs® & News

By Dr. Jeff Masters
Director of Meteorology, Weather Underground
By Kari Strenfel
Meteorologist, Weather Underground
By Christopher C. Burt
Weather Historian, Weather Underground
October 24, 2014
October 24, 2014
October 24, 2014

Nearby

Snow Depth

Station Depth Elevation
McClure Pass 1 in 9500 ft
Bison Lake 1 in 10880 ft
Overland Reservoir 1 in 9880 ft
North Lost Trail 0 in 9200 ft
Burro Mountain 0 in 9400 ft

Earthquake Activity

City Distance Mag. Time & Date
No recent earthquake activity has been reported nearby.
Minimum magnitude displayed is 2.5.

Coastal Water Temperatures

Place Temperature
No Stations Reporting

Nearby Weather Stations